Time;durP1;ratioP1;P1;durP2;ratioP2;P2;SDS_P1;SDS_P2;PMS_P1;PMS_P2;Temp;Humidity;BMP_temperature;BMP_pressure;BME280_temperature;BME280_humidity;BME280_pressure;Samples;Min_cycle;Max_cycle;Signal;HPM_P1;HPM_P2
2023/09/22 00:00:24;;;;;;;6.65;5.93;;;16.40;93.10;;;;;;5116389;28;20203;-86
2023/09/22 00:02:50;;;;;;;6.05;5.55;;;16.30;93.20;;;;;;5116210;28;20174;-86
2023/09/22 00:05:16;;;;;;;6.50;6.05;;;16.40;93.20;;;;;;5114521;28;20198;-86
2023/09/22 00:07:42;;;;;;;6.85;6.25;;;16.40;93.30;;;;;;5116040;28;20235;-86
2023/09/22 00:10:09;;;;;;;7.00;6.40;;;16.30;93.30;;;;;;5116174;28;20173;-86
2023/09/22 00:12:34;;;;;;;7.43;6.70;;;16.40;93.30;;;;;;5115982;28;20178;-87
2023/09/22 00:15:01;;;;;;;7.38;6.68;;;16.30;93.20;;;;;;5115910;28;20190;-86
2023/09/22 00:17:27;;;;;;;8.38;7.03;;;16.30;93.20;;;;;;5114482;28;20272;-86
2023/09/22 00:19:53;;;;;;;7.80;7.10;;;16.40;93.20;;;;;;5114335;28;20257;-85
2023/09/22 00:22:19;;;;;;;9.20;7.57;;;16.40;93.20;;;;;;5116136;28;20672;-86
2023/09/22 00:24:44;;;;;;;8.25;7.10;;;16.30;93.30;;;;;;5115663;28;20222;-86
2023/09/22 00:27:10;;;;;;;12.57;8.00;;;16.40;93.40;;;;;;5115538;28;20175;-86
2023/09/22 00:29:36;;;;;;;9.07;8.27;;;16.40;93.40;;;;;;5113730;28;20637;-86
2023/09/22 00:32:03;;;;;;;9.70;8.80;;;16.30;93.50;;;;;;5115573;28;20220;-86
2023/09/22 00:34:30;;;;;;;10.25;9.20;;;16.30;93.50;;;;;;5113936;28;20205;-86
2023/09/22 00:36:57;;;;;;;11.20;9.85;;;16.40;93.50;;;;;;5114079;28;20641;-86
2023/09/22 00:39:22;;;;;;;11.85;10.45;;;16.40;93.50;;;;;;5114160;28;20200;-87
2023/09/22 00:41:48;;;;;;;11.40;10.30;;;16.40;93.60;;;;;;5115270;28;20192;-85
2023/09/22 00:44:13;;;;;;;11.68;10.68;;;16.30;93.60;;;;;;5114872;28;20219;-85
2023/09/22 00:46:40;;;;;;;12.15;11.05;;;16.40;93.60;;;;;;5116172;28;20170;-87
2023/09/22 00:49:07;;;;;;;13.40;12.10;;;16.30;93.60;;;;;;5113939;28;20177;-87
2023/09/22 00:51:33;;;;;;;12.38;11.20;;;16.30;93.60;;;;;;5113714;28;20613;-86
2023/09/22 00:54:00;;;;;;;13.10;11.70;;;16.30;93.60;;;;;;5114653;28;20236;-86
2023/09/22 00:56:26;;;;;;;11.88;10.82;;;16.30;93.60;;;;;;5113076;28;20242;-86
2023/09/22 00:58:52;;;;;;;10.90;9.95;;;16.30;93.60;;;;;;5114632;28;20174;-85
2023/09/22 01:01:20;;;;;;;12.07;9.80;;;16.30;93.50;;;;;;5115026;28;20162;-86
2023/09/22 01:03:48;;;;;;;10.02;9.02;;;16.30;93.40;;;;;;5113344;28;20223;-86
2023/09/22 01:06:14;;;;;;;11.20;9.85;;;16.30;93.30;;;;;;5114836;28;20189;-86
2023/09/22 01:08:39;;;;;;;9.95;9.15;;;16.30;93.30;;;;;;5115144;28;20185;-88
2023/09/22 01:11:05;;;;;;;10.60;8.43;;;16.20;93.10;;;;;;5114738;28;20174;-87
2023/09/22 01:13:31;;;;;;;9.10;8.38;;;16.20;93.00;;;;;;5113079;28;20201;-86
2023/09/22 01:15:57;;;;;;;8.00;7.40;;;16.20;92.90;;;;;;5114453;28;20551;-86
2023/09/22 01:18:23;;;;;;;9.13;7.43;;;16.20;92.90;;;;;;5113279;28;20260;-86
2023/09/22 01:20:48;;;;;;;8.02;7.32;;;16.20;92.90;;;;;;5113081;28;20233;-87
2023/09/22 01:23:14;;;;;;;8.15;7.40;;;16.20;92.90;;;;;;5114033;28;20173;-85
2023/09/22 01:25:41;;;;;;;7.03;6.50;;;16.10;92.70;;;;;;5114203;28;20201;-85
2023/09/22 01:28:07;;;;;;;6.05;5.55;;;16.10;92.50;;;;;;5114469;28;20189;-86
2023/09/22 01:30:34;;;;;;;5.85;5.45;;;16.00;92.10;;;;;;5114383;28;20170;-87
2023/09/22 01:33:02;;;;;;;5.30;4.90;;;16.00;91.90;;;;;;5114584;28;20716;-86
2023/09/22 01:35:29;;;;;;;4.90;4.60;;;16.00;92.00;;;;;;5114492;28;20190;-88
2023/09/22 01:38:11;;;;;;;5.00;4.60;;;16.00;91.90;;;;;;5114703;28;20178;-86
2023/09/22 01:40:37;;;;;;;4.60;4.30;;;16.00;91.70;;;;;;5113294;28;20252;-86
2023/09/22 01:43:04;;;;;;;5.15;4.70;;;16.00;91.60;;;;;;5112676;28;20201;-86
2023/09/22 01:45:29;;;;;;;5.13;4.72;;;16.00;91.60;;;;;;5114316;28;20201;-86
2023/09/22 01:47:55;;;;;;;5.13;4.72;;;16.00;91.70;;;;;;5114446;28;20185;-86
2023/09/22 01:50:20;;;;;;;5.10;4.70;;;16.00;91.80;;;;;;5114245;28;20170;-86
2023/09/22 01:52:46;;;;;;;4.90;4.60;;;16.00;91.90;;;;;;5114666;28;20166;-86
2023/09/22 01:55:11;;;;;;;4.90;4.60;;;15.90;91.60;;;;;;5112654;28;20210;-86
2023/09/22 01:57:37;;;;;;;5.03;4.60;;;15.90;91.70;;;;;;5114730;28;20613;-86
2023/09/22 02:00:07;;;;;;;4.97;4.68;;;16.00;91.80;;;;;;5114443;28;20253;-86
2023/09/22 02:02:34;;;;;;;4.82;4.53;;;16.00;92.00;;;;;;5113175;28;20592;-86
2023/09/22 02:04:59;;;;;;;4.80;4.50;;;15.90;92.00;;;;;;5112511;28;20297;-85
2023/09/22 02:07:25;;;;;;;5.07;4.78;;;15.90;91.80;;;;;;5112961;28;20660;-86
2023/09/22 02:09:51;;;;;;;5.22;4.82;;;15.80;91.80;;;;;;5113100;28;20185;-86
2023/09/22 02:12:16;;;;;;;4.90;4.60;;;15.80;91.80;;;;;;5113788;28;20173;-86
2023/09/22 02:14:42;;;;;;;4.80;4.50;;;15.80;91.80;;;;;;5113941;28;20190;-85
2023/09/22 02:17:07;;;;;;;5.30;4.80;;;15.70;91.60;;;;;;5113837;28;20174;-86
2023/09/22 02:19:37;;;;;;;5.15;4.82;;;15.70;91.50;;;;;;5113986;28;20541;-86
2023/09/22 02:22:03;;;;;;;6.18;5.30;;;15.70;91.40;;;;;;5114073;28;20178;-86
2023/09/22 02:24:29;;;;;;;5.20;4.90;;;15.70;91.50;;;;;;5113758;28;20575;-86
2023/09/22 02:26:54;;;;;;;5.28;4.43;;;15.60;91.60;;;;;;5112791;28;20577;-87
2023/09/22 02:29:20;;;;;;;7.90;4.53;;;15.60;91.80;;;;;;5113848;28;20227;-85
2023/09/22 02:31:45;;;;;;;4.85;4.55;;;15.60;92.10;;;;;;5112354;28;20641;-86
2023/09/22 02:34:11;;;;;;;4.80;4.50;;;15.50;92.30;;;;;;5112935;28;20290;-86
2023/09/22 02:36:36;;;;;;;5.30;4.82;;;15.50;92.30;;;;;;5113286;28;20198;-87
2023/09/22 02:39:03;;;;;;;5.05;4.65;;;15.50;92.40;;;;;;5113941;28;20163;-86
2023/09/22 02:41:28;;;;;;;5.00;4.60;;;15.50;92.40;;;;;;5114272;28;20573;-86
2023/09/22 02:43:54;;;;;;;5.43;5.13;;;15.40;92.40;;;;;;5114397;28;20233;-85
2023/09/22 02:46:19;;;;;;;5.80;5.30;;;15.30;92.50;;;;;;5112591;28;20229;-86
2023/09/22 02:48:46;;;;;;;6.40;5.20;;;15.30;92.60;;;;;;5112439;28;20239;-85
2023/09/22 02:51:11;;;;;;;5.53;5.03;;;15.30;92.70;;;;;;5113570;28;20553;-86
2023/09/22 02:53:37;;;;;;;5.28;4.78;;;15.30;92.70;;;;;;5115252;28;20264;-86
2023/09/22 02:56:05;;;;;;;5.40;5.00;;;15.30;92.80;;;;;;5115657;28;20214;-86
2023/09/22 02:58:31;;;;;;;5.28;4.88;;;15.30;92.80;;;;;;5117270;28;20173;-86
2023/09/22 03:00:56;;;;;;;5.10;4.80;;;15.30;92.80;;;;;;5117474;28;20174;-86
2023/09/22 03:03:22;;;;;;;5.30;4.90;;;15.20;92.70;;;;;;5117701;27;20567;-86
2023/09/22 03:05:48;;;;;;;5.45;5.05;;;15.10;92.70;;;;;;5115786;28;20204;-85
2023/09/22 03:08:13;;;;;;;5.20;4.82;;;15.10;92.80;;;;;;5117525;28;20258;-86
2023/09/22 03:10:39;;;;;;;6.30;5.10;;;15.10;92.80;;;;;;5117383;28;20170;-86
2023/09/22 03:13:04;;;;;;;5.97;5.47;;;15.10;92.70;;;;;;5117131;28;20174;-86
2023/09/22 03:15:30;;;;;;;6.47;5.65;;;15.00;92.80;;;;;;5116131;28;20211;-87
2023/09/22 03:17:56;;;;;;;6.30;5.65;;;15.00;92.80;;;;;;5117186;28;20213;-86
2023/09/22 03:20:22;;;;;;;6.18;5.68;;;15.00;92.90;;;;;;5116994;28;20231;-85
2023/09/22 03:22:47;;;;;;;6.00;5.50;;;15.00;93.00;;;;;;5116795;28;20182;-85
2023/09/22 03:25:14;;;;;;;6.15;5.65;;;15.00;93.00;;;;;;5116453;28;20251;-86
2023/09/22 03:27:40;;;;;;;5.80;5.40;;;15.00;93.10;;;;;;5117028;28;20166;-86
2023/09/22 03:30:10;;;;;;;9.02;5.40;;;14.90;93.20;;;;;;5117037;28;20174;-86
2023/09/22 03:32:36;;;;;;;6.15;5.55;;;15.00;93.30;;;;;;5116603;28;20226;-86
2023/09/22 03:35:06;;;;;;;7.82;6.22;;;15.00;93.30;;;;;;5116664;28;20194;-88
2023/09/22 03:37:32;;;;;;;6.70;6.13;;;15.10;93.40;;;;;;5115446;28;20634;-86
2023/09/22 03:39:58;;;;;;;6.85;6.30;;;15.00;93.30;;;;;;5116707;28;20236;-86
2023/09/22 03:42:24;;;;;;;6.25;5.78;;;15.00;93.30;;;;;;5116885;28;20637;-86
2023/09/22 03:44:50;;;;;;;8.70;7.93;;;14.90;93.40;;;;;;5116205;28;20284;-86
2023/09/22 03:47:16;;;;;;;6.95;5.75;;;14.90;93.30;;;;;;5116053;28;20595;-86
2023/09/22 03:49:41;;;;;;;6.22;5.80;;;14.90;93.40;;;;;;5114917;28;20181;-86
2023/09/22 03:52:07;;;;;;;5.90;5.50;;;14.90;93.30;;;;;;5116253;28;20206;-87
2023/09/22 03:54:33;;;;;;;6.57;5.97;;;14.80;93.30;;;;;;5116168;28;20280;-87
2023/09/22 03:57:00;;;;;;;8.10;6.07;;;14.80;93.30;;;;;;5115871;28;20236;-85
2023/09/22 03:59:26;;;;;;;6.10;5.68;;;14.80;93.40;;;;;;5116231;28;20176;-85
2023/09/22 04:01:51;;;;;;;6.78;6.07;;;14.80;93.50;;;;;;5114932;28;20178;-85
2023/09/22 04:04:17;;;;;;;6.83;6.20;;;14.80;93.70;;;;;;5115157;28;20276;-87
2023/09/22 04:06:43;;;;;;;8.38;6.85;;;14.80;93.80;;;;;;5114213;28;20637;-86
2023/09/22 04:09:08;;;;;;;7.35;6.47;;;14.90;93.80;;;;;;5116054;28;20174;-86
2023/09/22 04:11:34;;;;;;;7.07;6.47;;;14.90;93.80;;;;;;5114981;28;20170;-86
2023/09/22 04:14:01;;;;;;;7.43;6.82;;;14.90;93.80;;;;;;5114637;28;20582;-86
2023/09/22 04:16:27;;;;;;;8.13;7.20;;;14.90;93.80;;;;;;5114657;28;20206;-86
2023/09/22 04:18:54;;;;;;;11.15;10.25;;;14.90;93.90;;;;;;5116223;28;20573;-86
2023/09/22 04:21:22;;;;;;;12.35;11.35;;;14.90;93.90;;;;;;5116065;28;20178;-86
2023/09/22 04:23:57;;;;;;;8.88;8.10;;;15.00;93.90;;;;;;5115488;28;20219;-86
2023/09/22 04:26:29;;;;;;;9.32;7.60;;;15.00;93.90;;;;;;5114671;28;20200;-86
2023/09/22 04:29:01;;;;;;;9.05;8.27;;;15.00;93.90;;;;;;5114364;28;20169;-86
2023/09/22 04:31:28;;;;;;;13.13;12.02;;;15.00;93.90;;;;;;5114235;28;20178;-86
2023/09/22 04:33:53;;;;;;;12.38;11.48;;;15.00;93.80;;;;;;5113933;28;20289;-86
2023/09/22 04:36:22;;;;;;;10.82;9.82;;;15.00;93.80;;;;;;5115463;28;20209;-86
2023/09/22 04:38:50;;;;;;;11.13;10.10;;;15.00;93.80;;;;;;5115074;28;20180;-86
2023/09/22 04:41:19;;;;;;;15.88;14.48;;;15.00;93.80;;;;;;5115366;28;20209;-86
2023/09/22 04:43:46;;;;;;;16.90;15.30;;;15.00;93.80;;;;;;5115163;28;20190;-86
2023/09/22 04:46:11;;;;;;;18.45;16.73;;;15.00;93.80;;;;;;5113751;28;20206;-86
2023/09/22 04:48:37;;;;;;;14.27;12.40;;;15.00;93.80;;;;;;5115070;28;20664;-86
2023/09/22 04:51:04;;;;;;;14.55;13.15;;;15.00;93.80;;;;;;5113520;28;20166;-86
2023/09/22 04:53:30;;;;;;;15.45;13.68;;;15.00;93.80;;;;;;5113797;28;20197;-86
2023/09/22 04:56:03;;;;;;;17.67;14.23;;;15.00;93.90;;;;;;5114673;28;20190;-86
2023/09/22 04:58:29;;;;;;;19.65;16.40;;;15.00;94.00;;;;;;5113661;28;20174;-86
2023/09/22 05:00:55;;;;;;;19.23;17.23;;;15.00;94.00;;;;;;5113411;28;20644;-86
2023/09/22 05:03:21;;;;;;;18.52;16.63;;;15.10;94.10;;;;;;5114484;28;20177;-86
2023/09/22 05:05:48;;;;;;;18.38;16.02;;;15.00;94.10;;;;;;5114671;27;20662;-85
2023/09/22 05:08:14;;;;;;;22.15;17.20;;;15.00;94.10;;;;;;5114653;28;20162;-86
2023/09/22 05:10:39;;;;;;;21.08;17.52;;;15.00;94.10;;;;;;5114498;28;20537;-86
2023/09/22 05:13:06;;;;;;;20.25;18.15;;;15.10;94.10;;;;;;5114459;28;20226;-87
2023/09/22 05:15:33;;;;;;;19.15;17.25;;;15.00;94.10;;;;;;5114370;28;20273;-86
2023/09/22 05:17:59;;;;;;;22.52;18.73;;;15.10;94.10;;;;;;5114412;28;20166;-86
2023/09/22 05:20:24;;;;;;;24.87;19.47;;;15.00;94.10;;;;;;5113304;28;20224;-86
2023/09/22 05:22:50;;;;;;;23.20;18.45;;;15.00;94.00;;;;;;5114637;28;20162;-86
2023/09/22 05:25:16;;;;;;;23.00;18.65;;;15.00;94.00;;;;;;5113217;28;20684;-86
2023/09/22 05:27:44;;;;;;;24.25;20.85;;;15.00;94.00;;;;;;5113160;28;20166;-86
2023/09/22 05:30:10;;;;;;;27.13;19.30;;;15.00;93.90;;;;;;5114808;28;20755;-86
2023/09/22 05:32:36;;;;;;;24.30;18.90;;;15.10;93.90;;;;;;5114276;28;20162;-86
2023/09/22 05:35:02;;;;;;;22.35;20.00;;;15.10;93.90;;;;;;5112902;28;20201;-86
2023/09/22 05:37:27;;;;;;;25.75;19.95;;;15.10;93.80;;;;;;5114257;28;20251;-86
2023/09/22 05:39:53;;;;;;;24.33;20.08;;;15.10;93.80;;;;;;5112972;28;20558;-85
2023/09/22 05:42:18;;;;;;;24.67;20.88;;;15.10;93.70;;;;;;5114169;28;20189;-86
2023/09/22 05:44:44;;;;;;;23.48;20.42;;;15.10;93.60;;;;;;5113916;28;20197;-85
2023/09/22 05:47:09;;;;;;;24.58;20.88;;;15.20;93.60;;;;;;5114257;28;20245;-85
2023/09/22 05:49:35;;;;;;;24.50;20.58;;;15.20;93.50;;;;;;5114014;28;20643;-86
2023/09/22 05:52:01;;;;;;;30.45;20.38;;;15.20;93.50;;;;;;5113892;28;20166;-85
2023/09/22 05:54:27;;;;;;;23.13;20.60;;;15.20;93.50;;;;;;5112623;28;20190;-85
2023/09/22 05:56:52;;;;;;;27.92;21.33;;;15.20;93.50;;;;;;5112592;28;20668;-86
2023/09/22 05:59:18;;;;;;;28.38;22.23;;;15.20;93.50;;;;;;5112635;28;20166;-86
2023/09/22 06:01:43;;;;;;;24.63;21.40;;;15.20;93.50;;;;;;5114155;28;20543;-86
2023/09/22 06:04:12;;;;;;;29.70;21.60;;;15.20;93.40;;;;;;5113240;28;20283;-89
2023/09/22 06:06:38;;;;;;;28.23;22.10;;;15.20;93.30;;;;;;5112951;28;20201;-87
2023/09/22 06:09:10;;;;;;;23.92;21.30;;;15.20;93.40;;;;;;5113162;28;20170;-88
2023/09/22 06:11:40;;;;;;;26.38;20.70;;;15.30;93.30;;;;;;5114939;28;20180;-87
2023/09/22 06:14:06;;;;;;;27.70;21.17;;;15.30;93.20;;;;;;5114542;28;20182;-86
2023/09/22 06:16:32;;;;;;;24.80;21.17;;;15.30;93.10;;;;;;5113344;28;20650;-86
2023/09/22 06:18:57;;;;;;;25.90;21.40;;;15.30;93.00;;;;;;5114792;28;20610;-87
2023/09/22 06:21:23;;;;;;;24.80;22.10;;;15.30;92.80;;;;;;5114774;28;20198;-86
2023/09/22 06:23:49;;;;;;;29.77;22.27;;;15.30;92.70;;;;;;5113355;28;20202;-85
2023/09/22 06:26:15;;;;;;;27.92;22.50;;;15.30;92.80;;;;;;5114541;28;20228;-85
2023/09/22 06:28:41;;;;;;;28.08;22.80;;;15.30;92.70;;;;;;5114398;28;20197;-86
2023/09/22 06:31:07;;;;;;;27.25;22.70;;;15.40;92.50;;;;;;5119032;28;20241;-85
2023/09/22 06:33:33;;;;;;;26.55;21.92;;;15.30;92.30;;;;;;5118060;28;20186;-86
2023/09/22 06:36:03;;;;;;;23.38;20.88;;;15.40;92.40;;;;;;5117808;28;20224;-86
2023/09/22 06:38:33;;;;;;;24.52;21.92;;;15.40;92.40;;;;;;5117417;27;20170;-86
2023/09/22 06:40:59;;;;;;;25.90;22.17;;;15.40;92.30;;;;;;5117401;27;20185;-85
2023/09/22 06:43:24;;;;;;;25.45;21.00;;;15.40;92.20;;;;;;5116180;28;20178;-86
2023/09/22 06:45:54;;;;;;;27.33;21.73;;;15.40;92.30;;;;;;5116090;28;20198;-85
2023/09/22 06:48:26;;;;;;;25.92;20.60;;;15.40;92.20;;;;;;5117583;28;20185;-86
2023/09/22 06:50:57;;;;;;;25.63;22.25;;;15.40;92.10;;;;;;5116652;28;20664;-87
2023/09/22 06:53:24;;;;;;;23.10;19.35;;;15.40;92.10;;;;;;5117773;27;20266;-86
2023/09/22 06:56:06;;;;;;;25.10;20.55;;;15.30;92.10;;;;;;5116165;28;20233;-86
2023/09/22 06:58:37;;;;;;;25.00;20.48;;;15.40;92.00;;;;;;5117802;28;20162;-85
2023/09/22 07:01:09;;;;;;;25.25;21.85;;;15.40;92.00;;;;;;5117675;28;20178;-87
2023/09/22 07:03:38;;;;;;;21.95;19.70;;;15.40;91.90;;;;;;5117416;28;20186;-86
2023/09/22 07:06:09;;;;;;;23.77;21.27;;;15.40;91.90;;;;;;5117196;28;20569;-86
2023/09/22 07:08:35;;;;;;;22.17;18.77;;;15.40;91.80;;;;;;5117173;28;20636;-86
2023/09/22 07:11:04;;;;;;;23.90;21.27;;;15.40;91.80;;;;;;5117646;28;20570;-86
2023/09/22 07:13:30;;;;;;;22.95;20.52;;;15.50;91.80;;;;;;5117238;28;20232;-86
2023/09/22 07:15:57;;;;;;;22.23;19.75;;;15.40;91.50;;;;;;5116986;28;20652;-85
2023/09/22 07:18:24;;;;;;;21.70;19.38;;;15.40;91.30;;;;;;5117056;28;20180;-86
2023/09/22 07:20:50;;;;;;;21.55;19.45;;;15.50;91.10;;;;;;5116839;28;20186;-86
2023/09/22 07:23:15;;;;;;;21.83;19.30;;;15.50;91.10;;;;;;5117251;28;20173;-86
2023/09/22 07:25:41;;;;;;;20.95;18.80;;;15.50;90.90;;;;;;5116297;28;20289;-86
2023/09/22 07:28:08;;;;;;;23.13;19.48;;;15.50;90.80;;;;;;5117131;28;20266;-86
2023/09/22 07:30:34;;;;;;;20.45;18.35;;;15.50;90.60;;;;;;5117003;28;20170;-85
2023/09/22 07:33:00;;;;;;;20.65;18.55;;;15.50;90.20;;;;;;5116255;28;20300;-86
2023/09/22 07:35:26;;;;;;;18.58;16.80;;;15.60;89.90;;;;;;5117315;28;20198;-87
2023/09/22 07:37:52;;;;;;;19.23;17.35;;;15.60;89.30;;;;;;5115602;28;20170;-85
2023/09/22 07:40:17;;;;;;;17.60;16.02;;;15.60;88.90;;;;;;5116552;28;20177;-85
2023/09/22 07:42:44;;;;;;;20.50;17.70;;;15.70;89.10;;;;;;5116979;28;20178;-85
2023/09/22 07:45:11;;;;;;;19.05;16.98;;;15.80;89.10;;;;;;5116544;28;20247;-89
2023/09/22 07:47:37;;;;;;;19.00;17.33;;;15.80;88.50;;;;;;5115154;28;20204;-85
2023/09/22 07:50:06;;;;;;;18.65;17.08;;;15.80;88.40;;;;;;5116735;28;20173;-86
2023/09/22 07:52:33;;;;;;;18.17;16.48;;;15.80;88.20;;;;;;5115343;28;20185;-85
2023/09/22 07:55:00;;;;;;;18.00;16.40;;;15.80;88.20;;;;;;5115366;28;20275;-85
2023/09/22 07:57:30;;;;;;;18.27;16.58;;;15.80;88.50;;;;;;5116930;27;20216;-85
2023/09/22 07:59:56;;;;;;;17.85;16.05;;;15.80;88.30;;;;;;5116346;28;20636;-86
2023/09/22 08:02:22;;;;;;;17.63;15.98;;;15.80;88.00;;;;;;5116530;28;20640;-88
2023/09/22 08:04:48;;;;;;;19.20;17.35;;;15.90;88.20;;;;;;5114979;28;20212;-85
2023/09/22 08:07:13;;;;;;;17.88;16.02;;;15.80;87.90;;;;;;5115241;28;20185;-86
2023/09/22 08:09:39;;;;;;;18.70;17.00;;;15.80;88.10;;;;;;5115408;28;20184;-86
2023/09/22 08:12:05;;;;;;;18.52;16.80;;;15.80;88.00;;;;;;5116277;28;20194;-86
2023/09/22 08:14:31;;;;;;;15.98;14.68;;;15.80;88.10;;;;;;5115898;28;20737;-86
2023/09/22 08:16:56;;;;;;;19.58;17.52;;;16.10;88.70;;;;;;5114417;28;20223;-86
2023/09/22 08:19:22;;;;;;;18.63;16.73;;;16.10;87.50;;;;;;5116053;28;20170;-87
2023/09/22 08:21:48;;;;;;;19.08;17.33;;;16.20;87.60;;;;;;5115919;28;20174;-87
2023/09/22 08:24:15;;;;;;;17.60;16.00;;;16.20;87.40;;;;;;5114699;28;20194;-87
2023/09/22 08:26:41;;;;;;;16.30;14.90;;;16.30;86.70;;;;;;5115562;28;20200;-86
2023/09/22 08:29:09;;;;;;;19.95;15.90;;;16.30;87.30;;;;;;5115967;28;20283;-86
2023/09/22 08:31:34;;;;;;;16.42;14.90;;;16.20;87.30;;;;;;5114644;28;20170;-86
2023/09/22 08:34:02;;;;;;;16.92;15.30;;;16.10;87.40;;;;;;5115368;28;20189;-85
2023/09/22 08:36:27;;;;;;;17.25;15.48;;;16.00;87.70;;;;;;5115432;28;20656;-86
2023/09/22 08:38:54;;;;;;;17.90;15.30;;;16.00;87.50;;;;;;5114303;28;20184;-86
2023/09/22 08:41:20;;;;;;;17.25;15.75;;;16.00;87.40;;;;;;5115423;28;20196;-85
2023/09/22 08:43:46;;;;;;;16.60;14.98;;;16.00;87.00;;;;;;5115548;28;20198;-85
2023/09/22 08:46:12;;;;;;;18.67;15.40;;;16.00;86.60;;;;;;5115269;28;20198;-85
2023/09/22 08:48:37;;;;;;;15.07;13.77;;;16.00;86.70;;;;;;5113737;28;20173;-85
2023/09/22 08:51:04;;;;;;;16.35;14.50;;;16.00;85.90;;;;;;5114731;28;20171;-85
2023/09/22 08:53:30;;;;;;;15.45;13.98;;;16.00;85.70;;;;;;5113516;28;20193;-84
2023/09/22 08:55:56;;;;;;;15.68;14.07;;;16.00;85.30;;;;;;5114988;28;20189;-85
2023/09/22 08:58:21;;;;;;;15.15;13.77;;;16.20;85.80;;;;;;5113860;28;20548;-88
2023/09/22 09:00:51;;;;;;;15.50;14.02;;;16.20;85.60;;;;;;5114490;28;20181;-88
2023/09/22 09:03:20;;;;;;;13.95;12.68;;;16.30;84.70;;;;;;5115542;28;20170;-87
2023/09/22 09:05:47;;;;;;;15.95;14.57;;;16.30;84.40;;;;;;5115939;28;20199;-87
2023/09/22 09:08:23;;;;;;;14.68;13.48;;;16.30;83.80;;;;;;5115357;28;20189;-87
2023/09/22 09:10:49;;;;;;;15.38;14.00;;;16.40;82.60;;;;;;5115518;28;20177;-87
2023/09/22 09:13:16;;;;;;;14.55;13.05;;;16.50;83.20;;;;;;5113774;28;20166;-87
2023/09/22 09:15:58;;;;;;;15.05;13.85;;;16.80;84.30;;;;;;5113621;28;20181;-86
2023/09/22 09:18:27;;;;;;;16.17;14.63;;;16.80;83.70;;;;;;5115031;28;20154;-86
2023/09/22 09:21:14;;;;;;;15.20;13.90;;;17.00;83.60;;;;;;5114778;28;20664;-86
2023/09/22 09:23:54;;;;;;;17.15;15.75;;;16.80;83.60;;;;;;5114524;28;20194;-86
2023/09/22 09:26:24;;;;;;;15.68;14.32;;;16.70;84.00;;;;;;5114654;28;20201;-85
2023/09/22 09:28:50;;;;;;;15.43;14.13;;;16.60;83.90;;;;;;5114506;28;20182;-86
2023/09/22 09:31:17;;;;;;;15.77;14.48;;;16.70;83.60;;;;;;5113333;28;20170;-86
2023/09/22 09:33:51;;;;;;;14.40;13.13;;;16.60;82.00;;;;;;5113017;28;20204;-86
2023/09/22 09:36:17;;;;;;;14.50;13.30;;;16.60;82.60;;;;;;5113978;28;20166;-85
2023/09/22 09:38:43;;;;;;;14.48;13.38;;;16.60;83.20;;;;;;5114194;28;20664;-86
2023/09/22 09:41:10;;;;;;;15.82;14.68;;;16.70;82.80;;;;;;5114047;28;20170;-86
2023/09/22 09:43:37;;;;;;;15.32;14.13;;;16.80;81.60;;;;;;5114322;28;20201;-84
2023/09/22 09:46:05;;;;;;;14.52;13.30;;;16.90;81.70;;;;;;5114440;28;20748;-85
2023/09/22 09:48:37;;;;;;;14.60;13.60;;;17.00;81.70;;;;;;5114395;28;20166;-85
2023/09/22 09:51:06;;;;;;;14.85;13.68;;;17.00;80.80;;;;;;5112913;28;20196;-87
2023/09/22 09:53:37;;;;;;;14.98;13.77;;;17.20;81.80;;;;;;5113976;28;20208;-85
2023/09/22 09:56:05;;;;;;;14.02;12.82;;;17.20;80.40;;;;;;5113114;28;20194;-85
2023/09/22 09:58:33;;;;;;;15.57;12.98;;;17.50;80.60;;;;;;5114146;28;20238;-86
2023/09/22 10:01:01;;;;;;;14.90;13.73;;;17.60;80.50;;;;;;5113129;28;20549;-86
2023/09/22 10:03:27;;;;;;;13.77;12.82;;;17.30;78.80;;;;;;5115469;27;20178;-86
2023/09/22 10:05:55;;;;;;;13.18;12.15;;;17.10;80.00;;;;;;5118194;28;20225;-86
2023/09/22 10:08:24;;;;;;;12.90;11.95;;;16.80;80.40;;;;;;5116942;28;20166;-85
2023/09/22 10:10:51;;;;;;;12.48;11.45;;;16.90;80.00;;;;;;5119169;28;20704;-87
2023/09/22 10:13:17;;;;;;;11.88;10.82;;;17.20;80.00;;;;;;5117522;28;20177;-86
2023/09/22 10:15:58;;;;;;;13.70;12.50;;;17.20;79.50;;;;;;5117972;28;20709;-86
2023/09/22 10:18:48;;;;;;;14.57;13.48;;;17.10;78.80;;;;;;5117105;28;20514;-86
2023/09/22 10:21:28;;;;;;;14.70;13.30;;;17.30;78.30;;;;;;5116815;28;20162;-85
2023/09/22 10:24:22;;;;;;;13.60;12.38;;;17.40;78.10;;;;;;5117891;28;20186;-85
2023/09/22 10:26:53;;;;;;;14.38;13.27;;;17.50;78.60;;;;;;5117875;28;20194;-86
2023/09/22 10:29:34;;;;;;;13.45;12.25;;;17.50;77.60;;;;;;5116383;28;20170;-86
2023/09/22 10:32:23;;;;;;;13.40;12.30;;;17.50;78.10;;;;;;5118487;28;20269;-87
2023/09/22 10:35:09;;;;;;;12.57;11.48;;;17.40;79.10;;;;;;5118733;28;20610;-87
2023/09/22 10:37:36;;;;;;;11.90;10.90;;;17.30;79.00;;;;;;5118700;28;20146;-87
2023/09/22 10:40:09;;;;;;;13.15;12.15;;;17.40;78.70;;;;;;5117452;28;20174;-87
2023/09/22 10:42:43;;;;;;;13.23;11.95;;;17.40;76.90;;;;;;5119573;28;20166;-88
2023/09/22 10:45:10;;;;;;;11.23;10.23;;;17.50;78.30;;;;;;5116935;28;20684;-86
2023/09/22 10:47:40;;;;;;;14.27;13.13;;;17.50;79.20;;;;;;5117644;28;20279;-87
2023/09/22 10:50:19;;;;;;;13.88;12.52;;;17.60;77.40;;;;;;5117333;28;20162;-85
2023/09/22 10:53:00;;;;;;;14.00;12.70;;;17.70;76.20;;;;;;5117203;28;20146;-86
2023/09/22 10:55:26;;;;;;;12.18;11.15;;;17.60;77.20;;;;;;5116682;28;20231;-85
2023/09/22 10:57:52;;;;;;;13.13;11.93;;;17.60;77.50;;;;;;5116737;28;20163;-85
2023/09/22 11:00:18;;;;;;;14.05;12.85;;;17.40;77.10;;;;;;5115092;28;20269;-86
2023/09/22 11:02:44;;;;;;;12.50;11.60;;;17.80;76.40;;;;;;5116418;28;20259;-85
2023/09/22 11:05:14;;;;;;;14.05;12.80;;;18.00;76.40;;;;;;5116158;28;20284;-87
2023/09/22 11:07:42;;;;;;;14.35;12.93;;;17.90;74.50;;;;;;5116516;28;20166;-86
2023/09/22 11:10:08;;;;;;;14.40;13.18;;;17.90;75.80;;;;;;5116121;28;20162;-85
2023/09/22 11:12:33;;;;;;;14.48;13.18;;;17.80;75.10;;;;;;5115749;28;20166;-88
2023/09/22 11:15:02;;;;;;;13.57;12.48;;;18.00;75.80;;;;;;5115255;28;20196;-86
2023/09/22 11:17:50;;;;;;;15.50;14.20;;;18.40;76.00;;;;;;5116516;28;20173;-89
2023/09/22 11:20:18;;;;;;;17.60;16.13;;;18.30;73.20;;;;;;5116609;28;20645;-88
2023/09/22 11:22:44;;;;;;;15.55;14.20;;;18.20;72.90;;;;;;5116122;28;20169;-85
2023/09/22 11:25:09;;;;;;;14.38;13.10;;;18.30;73.70;;;;;;5116520;28;20308;-87
2023/09/22 11:27:44;;;;;;;15.10;13.70;;;18.30;74.30;;;;;;5114583;28;20169;-88
2023/09/22 11:30:14;;;;;;;15.15;13.80;;;18.00;73.90;;;;;;5114854;28;20179;-89
2023/09/22 11:32:40;;;;;;;14.85;13.43;;;18.20;74.20;;;;;;5115194;28;20249;-89
2023/09/22 11:35:05;;;;;;;15.00;13.80;;;18.00;74.90;;;;;;5115107;28;20198;-89
2023/09/22 11:37:31;;;;;;;13.60;12.68;;;17.80;74.50;;;;;;5114773;28;20216;-90
2023/09/22 11:39:57;;;;;;;13.48;12.20;;;17.80;75.60;;;;;;5115190;28;20265;-89
2023/09/22 11:42:23;;;;;;;14.48;12.93;;;18.20;74.50;;;;;;5114798;28;20182;-89
2023/09/22 11:44:57;;;;;;;19.80;18.40;;;18.10;74.50;;;;;;5116496;28;20571;-90
2023/09/22 11:47:23;;;;;;;20.58;19.20;;;17.90;74.70;;;;;;5115041;28;20185;-89
2023/09/22 11:49:48;;;;;;;22.95;20.90;;;18.00;74.40;;;;;;5114665;28;20169;-89
2023/09/22 11:52:14;;;;;;;14.50;13.23;;;17.90;74.70;;;;;;5116331;28;20212;-89
2023/09/22 11:54:39;;;;;;;14.25;13.05;;;18.10;76.50;;;;;;5114494;28;20229;-87
2023/09/22 11:57:05;;;;;;;14.93;13.30;;;18.20;74.80;;;;;;5079040;28;1033068;-89
2023/09/22 11:59:34;;;;;;;20.35;18.95;;;18.20;75.40;;;;;;5114902;28;20563;-89
2023/09/22 12:02:09;;;;;;;22.45;20.80;;;18.30;74.50;;;;;;5116349;28;20230;-89
2023/09/22 12:04:37;;;;;;;13.38;12.10;;;18.00;73.90;;;;;;5115442;28;20196;-88
2023/09/22 12:07:03;;;;;;;14.15;13.07;;;17.70;75.70;;;;;;5115073;28;20247;-89
2023/09/22 12:09:28;;;;;;;15.35;14.20;;;17.40;76.50;;;;;;5114759;28;20178;-89
2023/09/22 12:11:54;;;;;;;20.75;19.30;;;17.40;76.30;;;;;;5116483;28;20593;-89
2023/09/22 12:14:22;;;;;;;20.35;18.95;;;17.30;76.50;;;;;;5115250;28;20197;-88
2023/09/22 12:16:47;;;;;;;13.32;12.18;;;17.30;77.40;;;;;;5116603;28;20163;-89
2023/09/22 12:19:14;;;;;;;13.35;12.02;;;17.40;77.20;;;;;;5116150;28;20166;-89
2023/09/22 12:21:39;;;;;;;13.40;12.38;;;17.90;78.10;;;;;;5114217;28;20181;-89
2023/09/22 12:24:05;;;;;;;15.98;14.52;;;18.40;77.00;;;;;;5114333;28;20212;-89
2023/09/22 12:26:31;;;;;;;15.43;14.23;;;18.60;74.30;;;;;;5113692;28;20198;-89
2023/09/22 12:28:57;;;;;;;14.65;13.57;;;18.70;74.30;;;;;;5115680;28;20276;-88
2023/09/22 12:31:22;;;;;;;14.77;13.43;;;18.70;73.70;;;;;;5116569;28;20170;-89
2023/09/22 12:33:48;;;;;;;15.20;13.88;;;18.70;74.90;;;;;;5115805;28;20190;-87